Kestrel — WDG5612 — position and weather

sailwx.info

Track history (hours):
 
Tides and Currents Weather Stations Pressure Air Temp Water Temp Dewpoint Dewpoint Depression Visibility Wind Speed Wind Dir Waves Ship Positions

Kestrel

Owner: Harley Marine Services, Inc, Seattle, WA. More information available from US FCC via Universal Licensing System and Coast Guard Vessel Documentation Center.

Last reported at 2017-Oct-22 09:58 UTC. Time now 2017-Oct-22 10:26 UTC.
Position N 47°35' W 122°21'.

Length 27 m; draft 3.5 m.

Type: Towing. MMSI: 367548420.

Date/timePositionNaut miles runAvg speedWind from/ knotsBaromVisibWave heightAir tempDewpointWater temp
2017-Oct-22 09:58N 47°35' W 122°21'0 0.0
2017-Oct-22 09:28N 47°35' W 122°21'0 0.0
2017-Oct-22 08:58N 47°35' W 122°21'0 0.0
2017-Oct-22 08:28N 47°35' W 122°21'0 0.0
2017-Oct-22 07:52N 47°35' W 122°21'0 0.0
2017-Oct-22 07:28N 47°35' W 122°21'0 0.1
2017-Oct-22 06:58N 47°35' W 122°21'0 0.1
2017-Oct-22 06:28N 47°35' W 122°21'0 0.0
2017-Oct-22 05:58N 47°35' W 122°21'0 0.0
2017-Oct-22 05:28N 47°35' W 122°21'0 0.0
2017-Oct-22 04:58N 47°35' W 122°21'0 0.0
2017-Oct-22 04:28N 47°35' W 122°21'0 0.0
2017-Oct-22 03:55N 47°35' W 122°21'0 0.0
2017-Oct-22 03:28N 47°35' W 122°21'0 0.0
2017-Oct-22 02:58N 47°35' W 122°21'0 0.0
2017-Oct-22 02:25N 47°35' W 122°21'0 0.0
2017-Oct-22 01:58N 47°35' W 122°21'0 0.0
2017-Oct-22 01:28N 47°35' W 122°21'0 0.0
2017-Oct-22 00:52N 47°35' W 122°21'0 0.0
2017-Oct-22 00:22N 47°35' W 122°21'0 0.0
2017-Oct-21 23:58N 47°35' W 122°21'0 0.0
2017-Oct-21 23:28N 47°35' W 122°21'0 0.0
2017-Oct-21 22:58N 47°35' W 122°21'0 0.0
2017-Oct-21 22:28N 47°35' W 122°21'0 0.0
2017-Oct-21 21:58N 47°35' W 122°21'0 0.0
2017-Oct-21 21:28N 47°35' W 122°21'0 0.0
2017-Oct-21 20:58N 47°35' W 122°21'0 0.0
2017-Oct-21 20:25N 47°35' W 122°21'0 0.0
2017-Oct-21 19:58N 47°35' W 122°21'0 0.0
2017-Oct-21 19:29N 47°35' W 122°21'0 0.0
2017-Oct-21 18:58N 47°35' W 122°21'0 0.0
2017-Oct-21 18:28N 47°35' W 122°21'0 0.0
2017-Oct-21 17:58N 47°35' W 122°21'0 0.0
2017-Oct-21 17:30N 47°35' W 122°21'0 0.0
2017-Oct-21 16:58N 47°35' W 122°21'0 0.0
2017-Oct-21 16:28N 47°35' W 122°21'0 0.0
2017-Oct-21 16:01N 47°35' W 122°21'0 0.0
2017-Oct-21 15:31N 47°35' W 122°21'0 0.1
2017-Oct-21 15:00N 47°35' W 122°21'1 1.0
2017-Oct-21 14:01N 47°36' W 122°22'3 5.7
2017-Oct-21 13:31N 47°37' W 122°26'3 6.2
2017-Oct-21 13:01N 47°40' W 122°29'3 6.5
2017-Oct-21 12:30N 47°43' W 122°28'3 6.7
2017-Oct-21 12:01N 47°46' W 122°27'3 6.5
2017-Oct-21 11:30N 47°49' W 122°28'3 6.9
2017-Oct-21 11:01N 47°53' W 122°29'3 7.0
2017-Oct-21 10:31N 47°56' W 122°32'4 8.4
2017-Oct-21 10:00N 47°59' W 122°36'22 7.0
2017-Oct-21 06:52N 48°20' W 122°47'3 7.4
2017-Oct-21 06:30N 48°22' W 122°46'4 8.8
2017-Oct-21 06:00N 48°27' W 122°45'5 9.4
2017-Oct-21 05:30N 48°31' W 122°42'4 8.5
2017-Oct-21 05:00N 48°32' W 122°36'1 2.7
2017-Oct-21 04:30N 48°31' W 122°34'0 0.2
2017-Oct-21 04:00N 48°30' W 122°34'0 0.0
2017-Oct-21 03:30N 48°30' W 122°34'0 0.0
2017-Oct-21 03:00N 48°30' W 122°34'0 0.0
2017-Oct-21 02:30N 48°30' W 122°34'0 0.0
2017-Oct-21 02:00N 48°30' W 122°34'0 0.0
2017-Oct-21 01:30N 48°30' W 122°34'0 0.0
2017-Oct-21 01:00N 48°30' W 122°34'0 0.0
2017-Oct-21 00:30N 48°30' W 122°34'0 0.0
2017-Oct-21 00:00N 48°30' W 122°34'0 0.0
2017-Oct-20 23:30N 48°30' W 122°34'0 0.0
2017-Oct-20 23:00N 48°30' W 122°34'0 0.0
2017-Oct-20 22:30N 48°30' W 122°34'0 0.0
2017-Oct-20 22:00N 48°30' W 122°34'0 0.0
2017-Oct-20 21:30N 48°30' W 122°34'0 0.0
2017-Oct-20 21:00N 48°30' W 122°34'0 0.0
2017-Oct-20 20:30N 48°30' W 122°34'0 0.0
2017-Oct-20 20:00N 48°30' W 122°34'0 0.0
2017-Oct-20 19:30N 48°30' W 122°34'0 0.0
2017-Oct-20 19:00N 48°30' W 122°34'0 0.0
2017-Oct-20 18:30N 48°30' W 122°34'0 0.0
2017-Oct-20 13:12N 48°31' W 122°35'1 3.3
2017-Oct-20 12:59N 48°31' W 122°35'2 4.5
2017-Oct-20 12:29N 48°31' W 122°38'4 7.3
2017-Oct-20 12:01N 48°30' W 122°43'5 9.2
2017-Oct-20 11:30N 48°26' W 122°46'5 9.1
2017-Oct-20 11:00N 48°23' W 122°50'6 9.1
2017-Oct-20 10:22N 48°19' W 122°58'5 8.3
2017-Oct-20 09:49N 48°17' W 123°03'4 8.4
2017-Oct-20 09:19N 48°15' W 123°09'3 8.2
2017-Oct-20 08:58N 48°13' W 123°12'4 7.8
2017-Oct-20 08:30N 48°11' W 123°17'4 8.0
2017-Oct-20 08:01N 48°09' W 123°22'3 5.7
2017-Oct-20 07:30N 48°08' W 123°26'1 2.5
2017-Oct-20 07:01N 48°08' W 123°28'0 0.0
2017-Oct-20 06:31N 48°08' W 123°28'0 0.0
2017-Oct-20 06:01N 48°08' W 123°28'0 0.0
2017-Oct-20 05:31N 48°08' W 123°28'0 0.0
2017-Oct-20 05:01N 48°08' W 123°28'0 0.0
2017-Oct-20 04:30N 48°08' W 123°28'0 0.0
2017-Oct-20 04:01N 48°08' W 123°28'0 0.0
2017-Oct-20 03:30N 48°08' W 123°28'0 0.0
2017-Oct-20 03:00N 48°08' W 123°28'0 0.0
2017-Oct-20 02:31N 48°08' W 123°28'0 0.0
2017-Oct-20 02:01N 48°08' W 123°28'0 0.0
2017-Oct-20 01:31N 48°08' W 123°28'0 0.0
2017-Oct-20 01:00N 48°08' W 123°28'0 0.0
2017-Oct-20 00:30N 48°08' W 123°28'0 0.0
2017-Oct-20 00:01N 48°08' W 123°28'0 0.0
2017-Oct-19 23:31N 48°08' W 123°28'0 0.0
2017-Oct-19 23:01N 48°08' W 123°28'0 0.0
2017-Oct-19 22:30N 48°08' W 123°28'0 0.0
2017-Oct-19 22:01N 48°08' W 123°28'0 0.0
2017-Oct-19 21:30N 48°08' W 123°28'0 0.0
2017-Oct-19 21:00N 48°08' W 123°28'0 0.0
2017-Oct-19 20:30N 48°08' W 123°28'0 0.0
2017-Oct-19 20:01N 48°08' W 123°28'0 0.0
2017-Oct-19 19:30N 48°08' W 123°28'0 0.0
2017-Oct-19 19:01N 48°08' W 123°28'0 0.0
2017-Oct-19 18:31N 48°08' W 123°28'0 0.0
2017-Oct-19 17:57N 48°08' W 123°28'0 0.0
2017-Oct-19 17:31N 48°08' W 123°28'0 0.0
2017-Oct-19 17:00N 48°08' W 123°28'0 0.0
2017-Oct-19 16:31N 48°08' W 123°28'0 0.0
2017-Oct-19 16:00N 48°08' W 123°28'0 0.0
2017-Oct-19 15:31N 48°08' W 123°28'0 0.0
2017-Oct-19 15:00N 48°08' W 123°28'0 0.0
2017-Oct-19 14:31N 48°08' W 123°28'0 0.0
2017-Oct-19 14:00N 48°08' W 123°28'0 0.0
2017-Oct-19 13:30N 48°08' W 123°28'1 1.9
2017-Oct-19 13:01N 48°08' W 123°26'1 2.4
2017-Oct-19 12:30N 48°08' W 123°25'2 3.3
2017-Oct-19 12:00N 48°08' W 123°22'3 6.3
2017-Oct-19 11:31N 48°10' W 123°18'3 5.2
2017-Oct-19 11:01N 48°11' W 123°14'3 6.0
2017-Oct-19 10:30N 48°12' W 123°10'3 5.9
2017-Oct-19 10:00N 48°13' W 123°06'3 5.9
2017-Oct-19 09:30N 48°13' W 123°02'3 6.4
2017-Oct-19 09:00N 48°12' W 122°57'4 6.7
2017-Oct-19 08:22N 48°11' W 122°51'12 6.0
2017-Oct-19 06:20N 48°03' W 122°38'3 8.3
2017-Oct-19 05:54N 47°60' W 122°35'3 8.2
2017-Oct-19 05:30N 47°57' W 122°32'4 8.0
2017-Oct-19 05:01N 47°54' W 122°28'4 8.2
2017-Oct-19 04:30N 47°50' W 122°27'4 8.2
2017-Oct-19 04:01N 47°46' W 122°25'4 8.5
2017-Oct-19 03:30N 47°42' W 122°27'4 8.2
2017-Oct-19 03:01N 47°38' W 122°27'3 7.0
2017-Oct-19 02:31N 47°36' W 122°22'2 3.9
2017-Oct-19 02:00N 47°35' W 122°21'0 0.2
2017-Oct-19 01:29N 47°34' W 122°21'0 0.0
2017-Oct-19 00:59N 47°34' W 122°21'0 0.0
2017-Oct-19 00:29N 47°34' W 122°21'0 0.0
2017-Oct-18 23:56N 47°34' W 122°21'0 0.0
2017-Oct-18 23:29N 47°34' W 122°21'0 0.0
2017-Oct-18 22:59N 47°34' W 122°21'0 0.0
2017-Oct-18 22:29N 47°34' W 122°21'0 0.2
2017-Oct-18 22:00N 47°34' W 122°21'0 0.0
2017-Oct-18 21:30N 47°34' W 122°21'0 0.0
2017-Oct-18 21:00N 47°34' W 122°21'0 0.0
2017-Oct-18 20:21N 47°34' W 122°21'0 0.0
2017-Oct-18 20:00N 47°34' W 122°21'0 0.0
2017-Oct-18 19:30N 47°34' W 122°21'0 0.0
2017-Oct-18 18:51N 47°34' W 122°21'0 0.0
2017-Oct-18 18:30N 47°34' W 122°21'0 0.0
2017-Oct-18 17:57N 47°34' W 122°21'0 0.1
2017-Oct-18 17:30N 47°34' W 122°21'0 0.0
2017-Oct-18 17:00N 47°34' W 122°21'0 0.0
2017-Oct-18 16:30N 47°34' W 122°21'0 0.0
2017-Oct-18 16:00N 47°34' W 122°21'0 0.1
2017-Oct-18 15:30N 47°34' W 122°21'0 0.0
2017-Oct-18 15:00N 47°34' W 122°21'0 0.0
2017-Oct-18 14:00N 47°34' W 122°21'0 0.0
2017-Oct-18 13:30N 47°34' W 122°21'0 0.0
2017-Oct-18 13:00N 47°34' W 122°21'0 0.0
2017-Oct-18 12:30N 47°34' W 122°21'0 0.0
2017-Oct-18 12:00N 47°34' W 122°21'0 0.0
2017-Oct-18 11:30N 47°34' W 122°21'0 0.0
2017-Oct-18 11:00N 47°34' W 122°21'0 0.0
2017-Oct-18 10:30N 47°34' W 122°21'0 0.0
2017-Oct-18 10:00N 47°34' W 122°21'0 0.0
2017-Oct-18 09:30N 47°34' W 122°21'0 0.0
2017-Oct-18 09:00N 47°34' W 122°21'0 0.0
2017-Oct-18 08:30N 47°34' W 122°21'0 0.0
2017-Oct-18 08:00N 47°34' W 122°21'0 0.0
2017-Oct-18 07:30N 47°34' W 122°21'0 0.0
2017-Oct-18 07:00N 47°34' W 122°21'0 0.0
2017-Oct-18 06:30N 47°34' W 122°21'0 0.0
2017-Oct-18 06:00N 47°34' W 122°21'0 0.0
2017-Oct-18 05:30N 47°34' W 122°21'0 0.0
2017-Oct-18 05:00N 47°34' W 122°21'0 0.0
2017-Oct-18 04:30N 47°34' W 122°21'0 0.0
2017-Oct-18 04:00N 47°34' W 122°21'0 0.0
2017-Oct-18 03:30N 47°34' W 122°21'0 0.0
2017-Oct-18 03:01N 47°34' W 122°21'0 0.0
2017-Oct-18 02:30N 47°34' W 122°21'0 0.0
2017-Oct-18 02:00N 47°34' W 122°21'0 0.0
2017-Oct-18 01:30N 47°34' W 122°21'0 0.0
2017-Oct-18 01:00N 47°34' W 122°21'0 0.0
2017-Oct-18 00:30N 47°34' W 122°21'1 1.0
2017-Oct-18 00:00N 47°35' W 122°21'1 2.1
2017-Oct-17 23:31N 47°36' W 122°21'2 3.2
2017-Oct-17 23:00N 47°36' W 122°24'3 6.4
2017-Oct-17 22:30N 47°38' W 122°27'3 6.2
2017-Oct-17 22:01N 47°42' W 122°28'3 6.9
2017-Oct-17 21:30N 47°45' W 122°27'3 6.9
2017-Oct-17 21:00N 47°48' W 122°28'4 7.4
2017-Oct-17 20:30N 47°52' W 122°29'4 7.7
2017-Oct-17 20:00N 47°56' W 122°31'1 2.0
2017-Oct-17 19:30N 47°56' W 122°30'3 6.5
2017-Oct-17 19:00N 47°53' W 122°28'3 6.6
2017-Oct-17 18:30N 47°50' W 122°27'3 6.7
2017-Oct-17 18:00N 47°47' W 122°25'1 1.0
2017-Oct-17 17:30N 47°47' W 122°24'0 0.1
2017-Oct-17 17:00N 47°47' W 122°24'0 0.0
2017-Oct-17 16:30N 47°47' W 122°24'0 0.0
2017-Oct-17 16:00N 47°47' W 122°24'0 0.0
2017-Oct-17 15:30N 47°47' W 122°24'0 0.0
2017-Oct-17 15:00N 47°47' W 122°24'0 0.0
2017-Oct-17 14:30N 47°47' W 122°24'0 0.0
2017-Oct-17 14:01N 47°47' W 122°24'0 0.0
2017-Oct-17 13:30N 47°47' W 122°24'0 0.0
2017-Oct-17 13:00N 47°47' W 122°24'0 0.0
2017-Oct-17 12:30N 47°47' W 122°24'0 0.0
2017-Oct-17 12:00N 47°47' W 122°24'0 0.0
2017-Oct-17 11:30N 47°47' W 122°24'0 0.0
2017-Oct-17 11:00N 47°47' W 122°24'0 0.0
2017-Oct-17 10:30N 47°47' W 122°24'0 0.0
2017-Oct-17 10:00N 47°47' W 122°24'0 0.0
2017-Oct-17 09:31N 47°47' W 122°24'0 0.0
2017-Oct-17 09:00N 47°47' W 122°24'0 0.0
2017-Oct-17 08:30N 47°47' W 122°24'0 0.0
2017-Oct-17 08:00N 47°47' W 122°24'0 0.0
2017-Oct-17 07:31N 47°47' W 122°24'0 0.0
2017-Oct-17 07:00N 47°47' W 122°24'0 0.0
2017-Oct-17 06:30N 47°47' W 122°24'0 0.0
2017-Oct-17 06:00N 47°47' W 122°24'0 0.0
2017-Oct-17 05:30N 47°47' W 122°24'0 0.0
2017-Oct-17 05:00N 47°47' W 122°24'0 0.0
2017-Oct-17 04:30N 47°47' W 122°24'0 0.0
2017-Oct-17 04:00N 47°47' W 122°24'0 0.0
2017-Oct-17 03:30N 47°47' W 122°24'0 0.0
2017-Oct-17 03:00N 47°47' W 122°24'0 0.0
2017-Oct-17 02:31N 47°47' W 122°24'0 0.0
2017-Oct-17 02:00N 47°47' W 122°24'0 0.0
2017-Oct-17 01:30N 47°47' W 122°24'0 0.0
2017-Oct-17 01:00N 47°47' W 122°24'0 0.0
2017-Oct-17 00:31N 47°47' W 122°24'0 0.0
2017-Oct-17 00:01N 47°47' W 122°24'0 0.1
2017-Oct-16 23:30N 47°47' W 122°24'2 3.8
2017-Oct-16 23:00N 47°45' W 122°25'4 8.3
2017-Oct-16 22:30N 47°41' W 122°27'4 7.1
2017-Oct-16 22:00N 47°38' W 122°25'4 7.2
2017-Oct-16 21:31N 47°35' W 122°21'1 1.8
2017-Oct-16 21:00N 47°35' W 122°21'0 0.4
2017-Oct-16 20:30N 47°34' W 122°21'0 0.0
2017-Oct-16 20:00N 47°34' W 122°21'0 0.0
2017-Oct-16 19:30N 47°34' W 122°21'0 0.0
2017-Oct-16 19:01N 47°34' W 122°21'0 0.0
2017-Oct-16 18:30N 47°34' W 122°21'0 0.0
2017-Oct-16 18:00N 47°34' W 122°21'0 0.0
2017-Oct-16 17:31N 47°34' W 122°21'0 0.0
2017-Oct-16 17:00N 47°34' W 122°21'0 0.0
2017-Oct-16 16:30N 47°34' W 122°21'0 0.0
2017-Oct-16 16:01N 47°34' W 122°21'0 0.0
2017-Oct-16 15:30N 47°34' W 122°21'0 0.0
2017-Oct-16 15:00N 47°34' W 122°21'0 0.0
2017-Oct-16 14:31N 47°34' W 122°21'0 0.0
2017-Oct-16 13:30N 47°34' W 122°21'0 0.0
2017-Oct-16 13:00N 47°34' W 122°21'0 0.0
2017-Oct-16 12:30N 47°34' W 122°21'0 0.0
2017-Oct-16 12:01N 47°34' W 122°21'0 0.0
2017-Oct-16 11:30N 47°34' W 122°21'0 0.0
2017-Oct-16 11:01N 47°34' W 122°21'0 0.0
2017-Oct-16 10:31N 47°34' W 122°21'0 0.0
2017-Oct-16 10:00N 47°34' W 122°21'0 0.0
2017-Oct-16 09:30N 47°34' W 122°21'0 0.0
2017-Oct-16 09:00N 47°34' W 122°21'0 0.0
2017-Oct-16 08:31N 47°34' W 122°21'0 0.0
2017-Oct-16 08:00N 47°34' W 122°21'0 0.0
2017-Oct-16 07:31N 47°34' W 122°21'0 0.0
2017-Oct-16 07:01N 47°34' W 122°21'0 0.0
2017-Oct-16 06:30N 47°34' W 122°21'0 0.0
2017-Oct-16 06:00N 47°34' W 122°21'0 0.0
2017-Oct-16 05:30N 47°34' W 122°21'0 0.0
2017-Oct-16 05:00N 47°34' W 122°21'0 0.0
2017-Oct-16 04:30N 47°34' W 122°21'0 0.0
2017-Oct-16 04:00N 47°34' W 122°21'0 0.0
2017-Oct-16 03:30N 47°34' W 122°21'0 0.0
2017-Oct-16 03:00N 47°34' W 122°21'0 0.0
2017-Oct-16 02:30N 47°34' W 122°21'0 0.0
2017-Oct-16 02:00N 47°34' W 122°21'0 0.0
2017-Oct-16 01:30N 47°34' W 122°21'0 0.0
2017-Oct-16 01:00N 47°34' W 122°21'0 0.2
2017-Oct-16 00:30N 47°35' W 122°21'1 1.9
2017-Oct-16 00:00N 47°35' W 122°21'0 0.0
2017-Oct-15 23:31N 47°35' W 122°21'0 0.0
2017-Oct-15 23:00N 47°35' W 122°21'0 0.0
2017-Oct-15 22:30N 47°35' W 122°21'0 0.0
2017-Oct-15 22:00N 47°35' W 122°21'0 0.0
2017-Oct-15 21:31N 47°35' W 122°21'0 0.0
2017-Oct-15 21:00N 47°35' W 122°21'0 0.1
2017-Oct-15 20:30N 47°35' W 122°21'0 0.0
2017-Oct-15 20:00N 47°35' W 122°21'0 0.0
2017-Oct-15 19:30N 47°35' W 122°21'0 0.0
2017-Oct-15 19:00N 47°35' W 122°21'0 0.0
2017-Oct-15 18:31N 47°35' W 122°21'0 0.0
2017-Oct-15 18:00N 47°35' W 122°21'0 0.0
2017-Oct-15 17:30N 47°35' W 122°21'1 1.5
2017-Oct-15 17:00N 47°35' W 122°21'0 0.5
2017-Oct-15 16:30N 47°34' W 122°21'0 0.0
2017-Oct-15 16:00N 47°34' W 122°21'0 0.0
2017-Oct-15 15:30N 47°34' W 122°21'0 0.0
2017-Oct-15 15:00N 47°34' W 122°21'0 0.1
2017-Oct-15 14:00N 47°34' W 122°21'0 0.0
2017-Oct-15 13:30N 47°34' W 122°21'0 0.0
2017-Oct-15 13:00N 47°34' W 122°21'0 0.0
2017-Oct-15 12:31N 47°34' W 122°21'0 0.0
2017-Oct-15 12:00N 47°34' W 122°21'0 0.0
2017-Oct-15 11:30N 47°34' W 122°21'0 0.0
2017-Oct-15 11:00N 47°34' W 122°21'0 0.0
2017-Oct-15 10:31N 47°34' W 122°21'0 0.0
2017-Oct-15 10:00N 47°34' W 122°21'0 0.0
2017-Oct-15 09:30N 47°34' W 122°21'0 0.0
2017-Oct-15 09:00N 47°34' W 122°21'0 0.0
2017-Oct-15 08:30N 47°34' W 122°21'0 0.0
2017-Oct-15 08:01N 47°34' W 122°21'0 0.0
2017-Oct-15 07:30N 47°34' W 122°21'0 0.0
2017-Oct-15 07:00N 47°34' W 122°21'0 0.0
2017-Oct-15 06:30N 47°34' W 122°21'0 0.0
2017-Oct-15 06:00N 47°34' W 122°21'0 0.0
2017-Oct-15 05:30N 47°34' W 122°21'0 0.0
2017-Oct-15 05:00N 47°34' W 122°21'0 0.0
2017-Oct-15 04:30N 47°34' W 122°21'0 0.0
2017-Oct-15 04:00N 47°34' W 122°21'0 0.0
2017-Oct-15 03:30N 47°34' W 122°21'0 0.0
2017-Oct-15 03:00N 47°34' W 122°21'0 0.0
2017-Oct-15 02:30N 47°34' W 122°21'0 0.0
2017-Oct-15 02:00N 47°34' W 122°21'1 2.1
2017-Oct-15 01:30N 47°35' W 122°21'0 0.5
2017-Oct-15 01:00N 47°36' W 122°21'0 0.5
2017-Oct-15 00:30N 47°35' W 122°21'1 2.1
2017-Oct-15 00:00N 47°34' W 122°21'0 0.0
2017-Oct-14 23:30N 47°34' W 122°21'0 0.0
2017-Oct-14 23:01N 47°34' W 122°21'0 0.0
2017-Oct-14 22:31N 47°34' W 122°21'0 0.0
2017-Oct-14 22:00N 47°34' W 122°21'0 0.0
2017-Oct-14 21:30N 47°34' W 122°21'0 0.0
2017-Oct-14 21:00N 47°34' W 122°21'0 0.0
2017-Oct-14 20:30N 47°34' W 122°21'0 0.0
2017-Oct-14 20:00N 47°34' W 122°21'0 0.0
2017-Oct-14 19:30N 47°34' W 122°21'1 2.1
2017-Oct-14 19:00N 47°35' W 122°21'1 2.3
2017-Oct-14 18:30N 47°36' W 122°22'4 8.0
2017-Oct-14 18:00N 47°39' W 122°26'4 8.3
2017-Oct-14 17:30N 47°43' W 122°26'4 7.9
2017-Oct-14 17:00N 47°47' W 122°24'0 0.8
2017-Oct-14 16:31N 47°47' W 122°24'0 0.0
2017-Oct-14 16:00N 47°47' W 122°24'0 0.0
2017-Oct-14 15:30N 47°47' W 122°24'0 0.0
2017-Oct-14 15:00N 47°47' W 122°24'0 0.0
2017-Oct-14 14:30N 47°47' W 122°24'0 0.0
2017-Oct-14 14:00N 47°47' W 122°24'0 0.0
2017-Oct-14 13:30N 47°47' W 122°24'0 0.0
2017-Oct-14 13:00N 47°47' W 122°24'0 0.0
2017-Oct-14 12:30N 47°47' W 122°24'0 0.0
2017-Oct-14 12:00N 47°47' W 122°24'0 0.0
2017-Oct-14 11:30N 47°47' W 122°24'0 0.0
2017-Oct-14 11:01N 47°47' W 122°24'0 0.0
2017-Oct-14 10:30N 47°47' W 122°24'0 0.0
2017-Oct-14 10:00N 47°47' W 122°24'0 0.0
2017-Oct-14 09:30N 47°47' W 122°24'0 0.0
2017-Oct-14 09:00N 47°47' W 122°24'0 0.0
2017-Oct-14 08:30N 47°47' W 122°24'0 0.0
2017-Oct-14 08:00N 47°47' W 122°24'0 0.0
2017-Oct-14 07:30N 47°47' W 122°24'0 0.0
2017-Oct-14 07:00N 47°47' W 122°24'0 0.0
2017-Oct-14 06:30N 47°47' W 122°24'0 0.0
2017-Oct-14 06:00N 47°47' W 122°24'0 0.0
2017-Oct-14 05:30N 47°47' W 122°24'0 0.0
2017-Oct-14 05:00N 47°47' W 122°24'0 0.0
2017-Oct-14 04:30N 47°47' W 122°24'0 0.0
2017-Oct-14 04:00N 47°47' W 122°24'0 0.0
2017-Oct-14 03:30N 47°47' W 122°24'0 0.0
2017-Oct-14 03:00N 47°47' W 122°24'0 0.0
2017-Oct-14 02:30N 47°47' W 122°24'0 0.0
2017-Oct-14 02:00N 47°47' W 122°24'0 0.0
2017-Oct-14 01:15N 47°47' W 122°24'0 0.0
2017-Oct-14 01:00N 47°47' W 122°24'0 0.0
2017-Oct-14 00:28N 47°47' W 122°24'0 0.0
2017-Oct-13 23:59N 47°47' W 122°24'0 0.0
2017-Oct-13 23:28N 47°47' W 122°24'0 0.0
2017-Oct-13 23:00N 47°47' W 122°24'0 0.9
2017-Oct-13 22:30N 47°47' W 122°24'3 5.4
2017-Oct-13 22:00N 47°50' W 122°25'3 6.3
2017-Oct-13 21:30N 47°53' W 122°27'3 6.4
2017-Oct-13 21:00N 47°55' W 122°30'4 7.3
2017-Oct-13 20:28N 47°57' W 122°35'25 7.0
2017-Oct-13 16:52N 48°21' W 122°46'2 6.2
2017-Oct-13 16:29N 48°24' W 122°45'3 6.4
2017-Oct-13 16:00N 48°27' W 122°44'3 6.2
2017-Oct-13 15:30N 48°30' W 122°43'2 4.5
2017-Oct-13 15:00N 48°31' W 122°41'4 5.6
2017-Oct-13 14:18N 48°31' W 122°35'0 0.0
2017-Oct-12 20:19N 48°31' W 122°35'3 6.0
2017-Oct-12 19:53N 48°31' W 122°39'3 7.3
2017-Oct-12 19:30N 48°31' W 122°43'4 8.1
2017-Oct-12 19:00N 48°27' W 122°44'6 8.9
2017-Oct-12 18:21N 48°21' W 122°45'8 7.9
2017-Oct-12 17:24N 48°14' W 122°48'3 6.1
2017-Oct-12 16:58N 48°12' W 122°46'3 4.8
2017-Oct-12 16:20N 48°10' W 122°43'1 3.4
2017-Oct-12 15:59N 48°09' W 122°41'2 3.2
2017-Oct-12 15:29N 48°08' W 122°40'2 4.4
2017-Oct-12 14:56N 48°05' W 122°39'3 6.2
2017-Oct-12 14:30N 48°03' W 122°38'3 5.8
2017-Oct-12 14:00N 48°00' W 122°36'3 6.2
2017-Oct-12 13:30N 47°58' W 122°33'3 6.8
2017-Oct-12 13:00N 47°56' W 122°29'4 7.6
2017-Oct-12 12:30N 47°52' W 122°28'4 7.9
2017-Oct-12 12:01N 47°48' W 122°26'4 7.9
2017-Oct-12 11:31N 47°44' W 122°26'4 8.4
2017-Oct-12 11:00N 47°40' W 122°27'4 8.3
2017-Oct-12 10:30N 47°36' W 122°27'4 7.9
2017-Oct-12 10:00N 47°32' W 122°25'  
Track history (hours):
 
Tides and Currents Weather Stations Pressure Air Temp Water Temp Dewpoint Dewpoint Depression Visibility Wind Speed Wind Dir Waves Ship Positions

Kestrel

Owner: Harley Marine Services, Inc, Seattle, WA. More information available from US FCC via Universal Licensing System and Coast Guard Vessel Documentation Center.

Last reported at 2017-Oct-22 09:58 UTC. Time now 2017-Oct-22 10:26 UTC.
Position N 47°35' W 122°21'.

Length 27 m; draft 3.5 m.

Type: Towing. MMSI: 367548420.

Date/timePositionNaut miles runAvg speedWind from/ knotsBaromVisibWave heightAir tempDewpointWater temp
2017-Oct-22 09:58N 47°35' W 122°21'0 0.0
2017-Oct-22 09:28N 47°35' W 122°21'0 0.0
2017-Oct-22 08:58N 47°35' W 122°21'0 0.0
2017-Oct-22 08:28N 47°35' W 122°21'0 0.0
2017-Oct-22 07:52N 47°35' W 122°21'0 0.0
2017-Oct-22 07:28N 47°35' W 122°21'0 0.1
2017-Oct-22 06:58N 47°35' W 122°21'0 0.1
2017-Oct-22 06:28N 47°35' W 122°21'0 0.0
2017-Oct-22 05:58N 47°35' W 122°21'0 0.0
2017-Oct-22 05:28N 47°35' W 122°21'0 0.0
2017-Oct-22 04:58N 47°35' W 122°21'0 0.0
2017-Oct-22 04:28N 47°35' W 122°21'0 0.0
2017-Oct-22 03:55N 47°35' W 122°21'0 0.0
2017-Oct-22 03:28N 47°35' W 122°21'0 0.0
2017-Oct-22 02:58N 47°35' W 122°21'0 0.0
2017-Oct-22 02:25N 47°35' W 122°21'0 0.0
2017-Oct-22 01:58N 47°35' W 122°21'0 0.0
2017-Oct-22 01:28N 47°35' W 122°21'0 0.0
2017-Oct-22 00:52N 47°35' W 122°21'0 0.0
2017-Oct-22 00:22N 47°35' W 122°21'0 0.0
2017-Oct-21 23:58N 47°35' W 122°21'0 0.0
2017-Oct-21 23:28N 47°35' W 122°21'0 0.0
2017-Oct-21 22:58N 47°35' W 122°21'0 0.0
2017-Oct-21 22:28N 47°35' W 122°21'0 0.0
2017-Oct-21 21:58N 47°35' W 122°21'0 0.0
2017-Oct-21 21:28N 47°35' W 122°21'0 0.0
2017-Oct-21 20:58N 47°35' W 122°21'0 0.0
2017-Oct-21 20:25N 47°35' W 122°21'0 0.0
2017-Oct-21 19:58N 47°35' W 122°21'0 0.0
2017-Oct-21 19:29N 47°35' W 122°21'0 0.0
2017-Oct-21 18:58N 47°35' W 122°21'0 0.0
2017-Oct-21 18:28N 47°35' W 122°21'0 0.0
2017-Oct-21 17:58N 47°35' W 122°21'0 0.0
2017-Oct-21 17:30N 47°35' W 122°21'0 0.0
2017-Oct-21 16:58N 47°35' W 122°21'0 0.0
2017-Oct-21 16:28N 47°35' W 122°21'0 0.0
2017-Oct-21 16:01N 47°35' W 122°21'0 0.0
2017-Oct-21 15:31N 47°35' W 122°21'0 0.1
2017-Oct-21 15:00N 47°35' W 122°21'1 1.0
2017-Oct-21 14:01N 47°36' W 122°22'3 5.7
2017-Oct-21 13:31N 47°37' W 122°26'3 6.2
2017-Oct-21 13:01N 47°40' W 122°29'3 6.5
2017-Oct-21 12:30N 47°43' W 122°28'3 6.7
2017-Oct-21 12:01N 47°46' W 122°27'3 6.5
2017-Oct-21 11:30N 47°49' W 122°28'3 6.9
2017-Oct-21 11:01N 47°53' W 122°29'3 7.0
2017-Oct-21 10:31N 47°56' W 122°32'4 8.4
2017-Oct-21 10:00N 47°59' W 122°36'22 7.0
2017-Oct-21 06:52N 48°20' W 122°47'3 7.4
2017-Oct-21 06:30N 48°22' W 122°46'4 8.8
2017-Oct-21 06:00N 48°27' W 122°45'5 9.4
2017-Oct-21 05:30N 48°31' W 122°42'4 8.5
2017-Oct-21 05:00N 48°32' W 122°36'1 2.7
2017-Oct-21 04:30N 48°31' W 122°34'0 0.2
2017-Oct-21 04:00N 48°30' W 122°34'0 0.0
2017-Oct-21 03:30N 48°30' W 122°34'0 0.0
2017-Oct-21 03:00N 48°30' W 122°34'0 0.0
2017-Oct-21 02:30N 48°30' W 122°34'0 0.0
2017-Oct-21 02:00N 48°30' W 122°34'0 0.0
2017-Oct-21 01:30N 48°30' W 122°34'0 0.0
2017-Oct-21 01:00N 48°30' W 122°34'0 0.0
2017-Oct-21 00:30N 48°30' W 122°34'0 0.0
2017-Oct-21 00:00N 48°30' W 122°34'0 0.0
2017-Oct-20 23:30N 48°30' W 122°34'0 0.0
2017-Oct-20 23:00N 48°30' W 122°34'0 0.0
2017-Oct-20 22:30N 48°30' W 122°34'0 0.0
2017-Oct-20 22:00N 48°30' W 122°34'0 0.0
2017-Oct-20 21:30N 48°30' W 122°34'0 0.0
2017-Oct-20 21:00N 48°30' W 122°34'0 0.0
2017-Oct-20 20:30N 48°30' W 122°34'0 0.0
2017-Oct-20 20:00N 48°30' W 122°34'0 0.0
2017-Oct-20 19:30N 48°30' W 122°34'0 0.0
2017-Oct-20 19:00N 48°30' W 122°34'0 0.0
2017-Oct-20 18:30N 48°30' W 122°34'0 0.0
2017-Oct-20 13:12N 48°31' W 122°35'1 3.3
2017-Oct-20 12:59N 48°31' W 122°35'2 4.5
2017-Oct-20 12:29N 48°31' W 122°38'4 7.3
2017-Oct-20 12:01N 48°30' W 122°43'5 9.2
2017-Oct-20 11:30N 48°26' W 122°46'5 9.1
2017-Oct-20 11:00N 48°23' W 122°50'6 9.1
2017-Oct-20 10:22N 48°19' W 122°58'5 8.3
2017-Oct-20 09:49N 48°17' W 123°03'4 8.4
2017-Oct-20 09:19N 48°15' W 123°09'3 8.2
2017-Oct-20 08:58N 48°13' W 123°12'4 7.8
2017-Oct-20 08:30N 48°11' W 123°17'4 8.0
2017-Oct-20 08:01N 48°09' W 123°22'3 5.7
2017-Oct-20 07:30N 48°08' W 123°26'1 2.5
2017-Oct-20 07:01N 48°08' W 123°28'0 0.0
2017-Oct-20 06:31N 48°08' W 123°28'0 0.0
2017-Oct-20 06:01N 48°08' W 123°28'0 0.0
2017-Oct-20 05:31N 48°08' W 123°28'0 0.0
2017-Oct-20 05:01N 48°08' W 123°28'0 0.0
2017-Oct-20 04:30N 48°08' W 123°28'0 0.0
2017-Oct-20 04:01N 48°08' W 123°28'0 0.0
2017-Oct-20 03:30N 48°08' W 123°28'0 0.0
2017-Oct-20 03:00N 48°08' W 123°28'0 0.0
2017-Oct-20 02:31N 48°08' W 123°28'0 0.0
2017-Oct-20 02:01N 48°08' W 123°28'0 0.0
2017-Oct-20 01:31N 48°08' W 123°28'0 0.0
2017-Oct-20 01:00N 48°08' W 123°28'0 0.0
2017-Oct-20 00:30N 48°08' W 123°28'0 0.0
2017-Oct-20 00:01N 48°08' W 123°28'0 0.0
2017-Oct-19 23:31N 48°08' W 123°28'0 0.0
2017-Oct-19 23:01N 48°08' W 123°28'0 0.0
2017-Oct-19 22:30N 48°08' W 123°28'0 0.0
2017-Oct-19 22:01N 48°08' W 123°28'0 0.0
2017-Oct-19 21:30N 48°08' W 123°28'0 0.0
2017-Oct-19 21:00N 48°08' W 123°28'0 0.0
2017-Oct-19 20:30N 48°08' W 123°28'0 0.0
2017-Oct-19 20:01N 48°08' W 123°28'0 0.0
2017-Oct-19 19:30N 48°08' W 123°28'0 0.0
2017-Oct-19 19:01N 48°08' W 123°28'0 0.0
2017-Oct-19 18:31N 48°08' W 123°28'0 0.0
2017-Oct-19 17:57N 48°08' W 123°28'0 0.0
2017-Oct-19 17:31N 48°08' W 123°28'0 0.0
2017-Oct-19 17:00N 48°08' W 123°28'0 0.0
2017-Oct-19 16:31N 48°08' W 123°28'0 0.0
2017-Oct-19 16:00N 48°08' W 123°28'0 0.0
2017-Oct-19 15:31N 48°08' W 123°28'0 0.0
2017-Oct-19 15:00N 48°08' W 123°28'0 0.0
2017-Oct-19 14:31N 48°08' W 123°28'0 0.0
2017-Oct-19 14:00N 48°08' W 123°28'0 0.0
2017-Oct-19 13:30N 48°08' W 123°28'1 1.9
2017-Oct-19 13:01N 48°08' W 123°26'1 2.4
2017-Oct-19 12:30N 48°08' W 123°25'2 3.3
2017-Oct-19 12:00N 48°08' W 123°22'3 6.3
2017-Oct-19 11:31N 48°10' W 123°18'3 5.2
2017-Oct-19 11:01N 48°11' W 123°14'3 6.0
2017-Oct-19 10:30N 48°12' W 123°10'3 5.9
2017-Oct-19 10:00N 48°13' W 123°06'3 5.9
2017-Oct-19 09:30N 48°13' W 123°02'3 6.4
2017-Oct-19 09:00N 48°12' W 122°57'4 6.7
2017-Oct-19 08:22N 48°11' W 122°51'12 6.0
2017-Oct-19 06:20N 48°03' W 122°38'3 8.3
2017-Oct-19 05:54N 47°60' W 122°35'3 8.2
2017-Oct-19 05:30N 47°57' W 122°32'4 8.0
2017-Oct-19 05:01N 47°54' W 122°28'4 8.2
2017-Oct-19 04:30N 47°50' W 122°27'4 8.2
2017-Oct-19 04:01N 47°46' W 122°25'4 8.5
2017-Oct-19 03:30N 47°42' W 122°27'4 8.2
2017-Oct-19 03:01N 47°38' W 122°27'3 7.0
2017-Oct-19 02:31N 47°36' W 122°22'2 3.9
2017-Oct-19 02:00N 47°35' W 122°21'0 0.2
2017-Oct-19 01:29N 47°34' W 122°21'0 0.0
2017-Oct-19 00:59N 47°34' W 122°21'0 0.0
2017-Oct-19 00:29N 47°34' W 122°21'0 0.0
2017-Oct-18 23:56N 47°34' W 122°21'0 0.0
2017-Oct-18 23:29N 47°34' W 122°21'0 0.0
2017-Oct-18 22:59N 47°34' W 122°21'0 0.0
2017-Oct-18 22:29N 47°34' W 122°21'0 0.2
2017-Oct-18 22:00N 47°34' W 122°21'0 0.0
2017-Oct-18 21:30N 47°34' W 122°21'0 0.0
2017-Oct-18 21:00N 47°34' W 122°21'0 0.0
2017-Oct-18 20:21N 47°34' W 122°21'0 0.0
2017-Oct-18 20:00N 47°34' W 122°21'0 0.0
2017-Oct-18 19:30N 47°34' W 122°21'0 0.0
2017-Oct-18 18:51N 47°34' W 122°21'0 0.0
2017-Oct-18 18:30N 47°34' W 122°21'0 0.0
2017-Oct-18 17:57N 47°34' W 122°21'0 0.1
2017-Oct-18 17:30N 47°34' W 122°21'0 0.0
2017-Oct-18 17:00N 47°34' W 122°21'0 0.0
2017-Oct-18 16:30N 47°34' W 122°21'0 0.0
2017-Oct-18 16:00N 47°34' W 122°21'0 0.1
2017-Oct-18 15:30N 47°34' W 122°21'0 0.0
2017-Oct-18 15:00N 47°34' W 122°21'0 0.0
2017-Oct-18 14:00N 47°34' W 122°21'0 0.0
2017-Oct-18 13:30N 47°34' W 122°21'0 0.0
2017-Oct-18 13:00N 47°34' W 122°21'0 0.0
2017-Oct-18 12:30N 47°34' W 122°21'0 0.0
2017-Oct-18 12:00N 47°34' W 122°21'0 0.0
2017-Oct-18 11:30N 47°34' W 122°21'0 0.0
2017-Oct-18 11:00N 47°34' W 122°21'0 0.0
2017-Oct-18 10:30N 47°34' W 122°21'0 0.0
2017-Oct-18 10:00N 47°34' W 122°21'0 0.0
2017-Oct-18 09:30N 47°34' W 122°21'0 0.0
2017-Oct-18 09:00N 47°34' W 122°21'0 0.0
2017-Oct-18 08:30N 47°34' W 122°21'0 0.0
2017-Oct-18 08:00N 47°34' W 122°21'0 0.0
2017-Oct-18 07:30N 47°34' W 122°21'0 0.0
2017-Oct-18 07:00N 47°34' W 122°21'0 0.0
2017-Oct-18 06:30N 47°34' W 122°21'0 0.0
2017-Oct-18 06:00N 47°34' W 122°21'0 0.0
2017-Oct-18 05:30N 47°34' W 122°21'0 0.0
2017-Oct-18 05:00N 47°34' W 122°21'0 0.0
2017-Oct-18 04:30N 47°34' W 122°21'0 0.0
2017-Oct-18 04:00N 47°34' W 122°21'0 0.0
2017-Oct-18 03:30N 47°34' W 122°21'0 0.0
2017-Oct-18 03:01N 47°34' W 122°21'0 0.0
2017-Oct-18 02:30N 47°34' W 122°21'0 0.0
2017-Oct-18 02:00N 47°34' W 122°21'0 0.0
2017-Oct-18 01:30N 47°34' W 122°21'0 0.0
2017-Oct-18 01:00N 47°34' W 122°21'0 0.0
2017-Oct-18 00:30N 47°34' W 122°21'1 1.0
2017-Oct-18 00:00N 47°35' W 122°21'1 2.1
2017-Oct-17 23:31N 47°36' W 122°21'2 3.2
2017-Oct-17 23:00N 47°36' W 122°24'3 6.4
2017-Oct-17 22:30N 47°38' W 122°27'3 6.2
2017-Oct-17 22:01N 47°42' W 122°28'3 6.9
2017-Oct-17 21:30N 47°45' W 122°27'3 6.9
2017-Oct-17 21:00N 47°48' W 122°28'4 7.4
2017-Oct-17 20:30N 47°52' W 122°29'4 7.7
2017-Oct-17 20:00N 47°56' W 122°31'1 2.0
2017-Oct-17 19:30N 47°56' W 122°30'3 6.5
2017-Oct-17 19:00N 47°53' W 122°28'3 6.6
2017-Oct-17 18:30N 47°50' W 122°27'3 6.7
2017-Oct-17 18:00N 47°47' W 122°25'1 1.0
2017-Oct-17 17:30N 47°47' W 122°24'0 0.1
2017-Oct-17 17:00N 47°47' W 122°24'0 0.0
2017-Oct-17 16:30N 47°47' W 122°24'0 0.0
2017-Oct-17 16:00N 47°47' W 122°24'0 0.0
2017-Oct-17 15:30N 47°47' W 122°24'0 0.0
2017-Oct-17 15:00N 47°47' W 122°24'0 0.0
2017-Oct-17 14:30N 47°47' W 122°24'0 0.0
2017-Oct-17 14:01N 47°47' W 122°24'0 0.0
2017-Oct-17 13:30N 47°47' W 122°24'0 0.0
2017-Oct-17 13:00N 47°47' W 122°24'0 0.0
2017-Oct-17 12:30N 47°47' W 122°24'0 0.0
2017-Oct-17 12:00N 47°47' W 122°24'0 0.0
2017-Oct-17 11:30N 47°47' W 122°24'0 0.0
2017-Oct-17 11:00N 47°47' W 122°24'0 0.0
2017-Oct-17 10:30N 47°47' W 122°24'0 0.0
2017-Oct-17 10:00N 47°47' W 122°24'0 0.0
2017-Oct-17 09:31N 47°47' W 122°24'0 0.0
2017-Oct-17 09:00N 47°47' W 122°24'0 0.0
2017-Oct-17 08:30N 47°47' W 122°24'0 0.0
2017-Oct-17 08:00N 47°47' W 122°24'0 0.0
2017-Oct-17 07:31N 47°47' W 122°24'0 0.0
2017-Oct-17 07:00N 47°47' W 122°24'0 0.0
2017-Oct-17 06:30N 47°47' W 122°24'0 0.0
2017-Oct-17 06:00N 47°47' W 122°24'0 0.0
2017-Oct-17 05:30N 47°47' W 122°24'0 0.0
2017-Oct-17 05:00N 47°47' W 122°24'0 0.0
2017-Oct-17 04:30N 47°47' W 122°24'0 0.0
2017-Oct-17 04:00N 47°47' W 122°24'0 0.0
2017-Oct-17 03:30N 47°47' W 122°24'0 0.0
2017-Oct-17 03:00N 47°47' W 122°24'0 0.0
2017-Oct-17 02:31N 47°47' W 122°24'0 0.0
2017-Oct-17 02:00N 47°47' W 122°24'0 0.0
2017-Oct-17 01:30N 47°47' W 122°24'0 0.0
2017-Oct-17 01:00N 47°47' W 122°24'0 0.0
2017-Oct-17 00:31N 47°47' W 122°24'0 0.0
2017-Oct-17 00:01N 47°47' W 122°24'0 0.1
2017-Oct-16 23:30N 47°47' W 122°24'2 3.8
2017-Oct-16 23:00N 47°45' W 122°25'4 8.3
2017-Oct-16 22:30N 47°41' W 122°27'4 7.1
2017-Oct-16 22:00N 47°38' W 122°25'4 7.2
2017-Oct-16 21:31N 47°35' W 122°21'1 1.8
2017-Oct-16 21:00N 47°35' W 122°21'0 0.4
2017-Oct-16 20:30N 47°34' W 122°21'0 0.0
2017-Oct-16 20:00N 47°34' W 122°21'0 0.0
2017-Oct-16 19:30N 47°34' W 122°21'0 0.0
2017-Oct-16 19:01N 47°34' W 122°21'0 0.0
2017-Oct-16 18:30N 47°34' W 122°21'0 0.0
2017-Oct-16 18:00N 47°34' W 122°21'0 0.0
2017-Oct-16 17:31N 47°34' W 122°21'0 0.0
2017-Oct-16 17:00N 47°34' W 122°21'0 0.0
2017-Oct-16 16:30N 47°34' W 122°21'0 0.0
2017-Oct-16 16:01N 47°34' W 122°21'0 0.0
2017-Oct-16 15:30N 47°34' W 122°21'0 0.0
2017-Oct-16 15:00N 47°34' W 122°21'0 0.0
2017-Oct-16 14:31N 47°34' W 122°21'0 0.0
2017-Oct-16 13:30N 47°34' W 122°21'0 0.0
2017-Oct-16 13:00N 47°34' W 122°21'0 0.0
2017-Oct-16 12:30N 47°34' W 122°21'0 0.0
2017-Oct-16 12:01N 47°34' W 122°21'0 0.0
2017-Oct-16 11:30N 47°34' W 122°21'0 0.0
2017-Oct-16 11:01N 47°34' W 122°21'0 0.0
2017-Oct-16 10:31N 47°34' W 122°21'0 0.0
2017-Oct-16 10:00N 47°34' W 122°21'0 0.0
2017-Oct-16 09:30N 47°34' W 122°21'0 0.0
2017-Oct-16 09:00N 47°34' W 122°21'0 0.0
2017-Oct-16 08:31N 47°34' W 122°21'0 0.0
2017-Oct-16 08:00N 47°34' W 122°21'0 0.0
2017-Oct-16 07:31N 47°34' W 122°21'0 0.0
2017-Oct-16 07:01N 47°34' W 122°21'0 0.0
2017-Oct-16 06:30N 47°34' W 122°21'0 0.0
2017-Oct-16 06:00N 47°34' W 122°21'0 0.0
2017-Oct-16 05:30N 47°34' W 122°21'0 0.0
2017-Oct-16 05:00N 47°34' W 122°21'0 0.0
2017-Oct-16 04:30N 47°34' W 122°21'0 0.0
2017-Oct-16 04:00N 47°34' W 122°21'0 0.0
2017-Oct-16 03:30N 47°34' W 122°21'0 0.0
2017-Oct-16 03:00N 47°34' W 122°21'0 0.0
2017-Oct-16 02:30N 47°34' W 122°21'0 0.0
2017-Oct-16 02:00N 47°34' W 122°21'0 0.0
2017-Oct-16 01:30N 47°34' W 122°21'0 0.0
2017-Oct-16 01:00N 47°34' W 122°21'0 0.2
2017-Oct-16 00:30N 47°35' W 122°21'1 1.9
2017-Oct-16 00:00N 47°35' W 122°21'0 0.0
2017-Oct-15 23:31N 47°35' W 122°21'0 0.0
2017-Oct-15 23:00N 47°35' W 122°21'0 0.0
2017-Oct-15 22:30N 47°35' W 122°21'0 0.0
2017-Oct-15 22:00N 47°35' W 122°21'0 0.0
2017-Oct-15 21:31N 47°35' W 122°21'0 0.0
2017-Oct-15 21:00N 47°35' W 122°21'0 0.1
2017-Oct-15 20:30N 47°35' W 122°21'0 0.0
2017-Oct-15 20:00N 47°35' W 122°21'0 0.0
2017-Oct-15 19:30N 47°35' W 122°21'0 0.0
2017-Oct-15 19:00N 47°35' W 122°21'0 0.0
2017-Oct-15 18:31N 47°35' W 122°21'0 0.0
2017-Oct-15 18:00N 47°35' W 122°21'0 0.0
2017-Oct-15 17:30N 47°35' W 122°21'1 1.5
2017-Oct-15 17:00N 47°35' W 122°21'0 0.5
2017-Oct-15 16:30N 47°34' W 122°21'0 0.0
2017-Oct-15 16:00N 47°34' W 122°21'0 0.0
2017-Oct-15 15:30N 47°34' W 122°21'0 0.0
2017-Oct-15 15:00N 47°34' W 122°21'0 0.1
2017-Oct-15 14:00N 47°34' W 122°21'0 0.0
2017-Oct-15 13:30N 47°34' W 122°21'0 0.0
2017-Oct-15 13:00N 47°34' W 122°21'0 0.0
2017-Oct-15 12:31N 47°34' W 122°21'0 0.0
2017-Oct-15 12:00N 47°34' W 122°21'0 0.0
2017-Oct-15 11:30N 47°34' W 122°21'0 0.0
2017-Oct-15 11:00N 47°34' W 122°21'0 0.0
2017-Oct-15 10:31N 47°34' W 122°21'0 0.0
2017-Oct-15 10:00N 47°34' W 122°21'0 0.0
2017-Oct-15 09:30N 47°34' W 122°21'0 0.0
2017-Oct-15 09:00N 47°34' W 122°21'0 0.0
2017-Oct-15 08:30N 47°34' W 122°21'0 0.0
2017-Oct-15 08:01N 47°34' W 122°21'0 0.0
2017-Oct-15 07:30N 47°34' W 122°21'0 0.0
2017-Oct-15 07:00N 47°34' W 122°21'0 0.0
2017-Oct-15 06:30N 47°34' W 122°21'0 0.0
2017-Oct-15 06:00N 47°34' W 122°21'0 0.0
2017-Oct-15 05:30N 47°34' W 122°21'0 0.0
2017-Oct-15 05:00N 47°34' W 122°21'0 0.0
2017-Oct-15 04:30N 47°34' W 122°21'0 0.0
2017-Oct-15 04:00N 47°34' W 122°21'0 0.0
2017-Oct-15 03:30N 47°34' W 122°21'0 0.0
2017-Oct-15 03:00N 47°34' W 122°21'0 0.0
2017-Oct-15 02:30N 47°34' W 122°21'0 0.0
2017-Oct-15 02:00N 47°34' W 122°21'1 2.1
2017-Oct-15 01:30N 47°35' W 122°21'0 0.5
2017-Oct-15 01:00N 47°36' W 122°21'0 0.5
2017-Oct-15 00:30N 47°35' W 122°21'1 2.1
2017-Oct-15 00:00N 47°34' W 122°21'0 0.0
2017-Oct-14 23:30N 47°34' W 122°21'0 0.0
2017-Oct-14 23:01N 47°34' W 122°21'0 0.0
2017-Oct-14 22:31N 47°34' W 122°21'0 0.0
2017-Oct-14 22:00N 47°34' W 122°21'0 0.0
2017-Oct-14 21:30N 47°34' W 122°21'0 0.0
2017-Oct-14 21:00N 47°34' W 122°21'0 0.0
2017-Oct-14 20:30N 47°34' W 122°21'0 0.0
2017-Oct-14 20:00N 47°34' W 122°21'0 0.0
2017-Oct-14 19:30N 47°34' W 122°21'1 2.1
2017-Oct-14 19:00N 47°35' W 122°21'1 2.3
2017-Oct-14 18:30N 47°36' W 122°22'4 8.0
2017-Oct-14 18:00N 47°39' W 122°26'4 8.3
2017-Oct-14 17:30N 47°43' W 122°26'4 7.9
2017-Oct-14 17:00N 47°47' W 122°24'0 0.8
2017-Oct-14 16:31N 47°47' W 122°24'0 0.0
2017-Oct-14 16:00N 47°47' W 122°24'0 0.0
2017-Oct-14 15:30N 47°47' W 122°24'0 0.0
2017-Oct-14 15:00N 47°47' W 122°24'0 0.0
2017-Oct-14 14:30N 47°47' W 122°24'0 0.0
2017-Oct-14 14:00N 47°47' W 122°24'0 0.0
2017-Oct-14 13:30N 47°47' W 122°24'0 0.0
2017-Oct-14 13:00N 47°47' W 122°24'0 0.0
2017-Oct-14 12:30N 47°47' W 122°24'0 0.0
2017-Oct-14 12:00N 47°47' W 122°24'0 0.0
2017-Oct-14 11:30N 47°47' W 122°24'0 0.0
2017-Oct-14 11:01N 47°47' W 122°24'0 0.0
2017-Oct-14 10:30N 47°47' W 122°24'0 0.0
2017-Oct-14 10:00N 47°47' W 122°24'0 0.0
2017-Oct-14 09:30N 47°47' W 122°24'0 0.0
2017-Oct-14 09:00N 47°47' W 122°24'0 0.0
2017-Oct-14 08:30N 47°47' W 122°24'0 0.0
2017-Oct-14 08:00N 47°47' W 122°24'0 0.0
2017-Oct-14 07:30N 47°47' W 122°24'0 0.0
2017-Oct-14 07:00N 47°47' W 122°24'0 0.0
2017-Oct-14 06:30N 47°47' W 122°24'0 0.0
2017-Oct-14 06:00N 47°47' W 122°24'0 0.0
2017-Oct-14 05:30N 47°47' W 122°24'0 0.0
2017-Oct-14 05:00N 47°47' W 122°24'0 0.0
2017-Oct-14 04:30N 47°47' W 122°24'0 0.0
2017-Oct-14 04:00N 47°47' W 122°24'0 0.0
2017-Oct-14 03:30N 47°47' W 122°24'0 0.0
2017-Oct-14 03:00N 47°47' W 122°24'0 0.0
2017-Oct-14 02:30N 47°47' W 122°24'0 0.0
2017-Oct-14 02:00N 47°47' W 122°24'0 0.0
2017-Oct-14 01:15N 47°47' W 122°24'0 0.0
2017-Oct-14 01:00N 47°47' W 122°24'0 0.0
2017-Oct-14 00:28N 47°47' W 122°24'0 0.0
2017-Oct-13 23:59N 47°47' W 122°24'0 0.0
2017-Oct-13 23:28N 47°47' W 122°24'0 0.0
2017-Oct-13 23:00N 47°47' W 122°24'0 0.9
2017-Oct-13 22:30N 47°47' W 122°24'3 5.4
2017-Oct-13 22:00N 47°50' W 122°25'3 6.3
2017-Oct-13 21:30N 47°53' W 122°27'3 6.4
2017-Oct-13 21:00N 47°55' W 122°30'4 7.3
2017-Oct-13 20:28N 47°57' W 122°35'25 7.0
2017-Oct-13 16:52N 48°21' W 122°46'2 6.2
2017-Oct-13 16:29N 48°24' W 122°45'3 6.4
2017-Oct-13 16:00N 48°27' W 122°44'3 6.2
2017-Oct-13 15:30N 48°30' W 122°43'2 4.5
2017-Oct-13 15:00N 48°31' W 122°41'4 5.6
2017-Oct-13 14:18N 48°31' W 122°35'0 0.0
2017-Oct-12 20:19N 48°31' W 122°35'3 6.0
2017-Oct-12 19:53N 48°31' W 122°39'3 7.3
2017-Oct-12 19:30N 48°31' W 122°43'4 8.1
2017-Oct-12 19:00N 48°27' W 122°44'6 8.9
2017-Oct-12 18:21N 48°21' W 122°45'8 7.9
2017-Oct-12 17:24N 48°14' W 122°48'3 6.1
2017-Oct-12 16:58N 48°12' W 122°46'3 4.8
2017-Oct-12 16:20N 48°10' W 122°43'1 3.4
2017-Oct-12 15:59N 48°09' W 122°41'2 3.2
2017-Oct-12 15:29N 48°08' W 122°40'2 4.4
2017-Oct-12 14:56N 48°05' W 122°39'3 6.2
2017-Oct-12 14:30N 48°03' W 122°38'3 5.8
2017-Oct-12 14:00N 48°00' W 122°36'3 6.2
2017-Oct-12 13:30N 47°58' W 122°33'3 6.8
2017-Oct-12 13:00N 47°56' W 122°29'4 7.6
2017-Oct-12 12:30N 47°52' W 122°28'4 7.9
2017-Oct-12 12:01N 47°48' W 122°26'4 7.9
2017-Oct-12 11:31N 47°44' W 122°26'4 8.4
2017-Oct-12 11:00N 47°40' W 122°27'4 8.3
2017-Oct-12 10:30N 47°36' W 122°27'4 7.9
2017-Oct-12 10:00N 47°32' W 122°25'  

Dump ship's entire track history